createdAt,value
2023-03-23T17:28:06.754Z,1012.25
2023-03-23T17:28:18.332Z,1012.22
2023-03-23T17:28:26.686Z,1012.21
2023-03-23T17:28:37.030Z,1012.25
2023-03-23T17:28:47.019Z,1012.29
2023-03-23T17:28:57.107Z,1012.28
2023-03-23T17:29:07.263Z,1012.23
2023-03-23T17:29:17.659Z,1012.34
2023-03-23T17:29:27.576Z,1012.40
2023-03-23T17:29:37.715Z,1012.48
2023-03-23T17:29:48.218Z,1012.70
2023-03-23T17:29:58.032Z,1012.86
2023-03-23T17:30:08.156Z,1013.06
2023-03-23T17:30:17.973Z,1013.20
2023-03-23T17:30:28.294Z,1013.22
2023-03-23T17:30:38.362Z,1013.28
2023-03-23T17:30:48.407Z,1013.25
2023-03-23T17:30:58.501Z,1013.26
2023-03-23T17:31:08.537Z,1013.43
2023-03-23T17:31:18.632Z,1013.53
2023-03-23T17:31:29.010Z,1013.68
2023-03-23T17:31:39.074Z,1013.82
2023-03-23T17:31:49.134Z,1013.91
2023-03-23T17:31:59.349Z,1014.01
2023-03-23T17:32:09.452Z,1014.07
2023-03-23T17:32:19.487Z,1014.16
2023-03-23T17:32:29.561Z,1014.18
2023-03-23T17:32:39.849Z,1014.19
2023-03-23T17:32:49.900Z,1014.19
2023-03-23T17:33:00.060Z,1014.18
2023-03-23T17:33:10.372Z,1014.18
2023-03-23T17:33:20.909Z,1014.18
2023-03-23T17:33:30.521Z,1014.20
2023-03-23T17:33:40.612Z,1014.23
2023-03-23T17:33:51.291Z,1014.21
2023-03-23T17:34:00.794Z,1014.19
2023-03-23T17:34:10.867Z,1014.20
2023-03-23T17:34:20.969Z,1014.23
2023-03-23T17:34:31.082Z,1014.16
2023-03-23T17:34:41.415Z,1014.19
2023-03-23T17:34:51.487Z,1014.21
2023-03-23T17:35:01.582Z,1014.19
2023-03-23T17:35:11.583Z,1014.19
2023-03-23T17:35:21.874Z,1014.21
2023-03-23T17:35:31.765Z,1014.21
2023-03-23T17:35:42.000Z,1014.22
2023-03-23T17:35:52.510Z,1014.21
2023-03-23T17:36:02.308Z,1014.21
2023-03-23T17:36:12.343Z,1014.22
2023-03-23T17:36:22.522Z,1014.24
2023-03-23T17:36:32.606Z,1014.22
2023-03-23T17:36:42.821Z,1014.20
2023-03-23T17:36:52.833Z,1014.22
2023-03-23T17:37:02.765Z,1014.18
2023-03-23T17:37:13.004Z,1014.18
2023-03-23T17:37:23.155Z,1014.21
2023-03-23T17:37:33.209Z,1014.27
2023-03-23T17:37:43.415Z,1014.32
2023-03-23T17:37:53.647Z,1014.46
2023-03-23T17:38:03.724Z,1014.59
2023-03-23T17:38:13.883Z,1014.67
2023-03-23T17:38:24.262Z,1014.74
2023-03-23T17:38:34.144Z,1014.85
2023-03-23T17:38:44.187Z,1014.86
2023-03-23T17:38:54.295Z,1014.90
2023-03-23T17:39:04.548Z,1014.96
2023-03-23T17:39:14.563Z,1014.99
2023-03-23T17:39:25.685Z,1015.00
2023-03-23T17:39:43.125Z,1015.04
2023-03-23T17:39:49.282Z,1015.08
2023-03-23T17:39:56.187Z,1015.06
2023-03-23T17:40:06.233Z,1015.14
2023-03-23T17:40:16.405Z,1015.15
2023-03-23T17:40:26.528Z,1015.13
2023-03-23T17:40:36.648Z,1015.22
2023-03-23T17:40:56.883Z,1015.28
2023-03-23T17:41:07.165Z,1015.33
2023-03-23T17:41:17.038Z,1015.41
2023-03-23T17:41:27.180Z,1015.41
2023-03-23T17:41:37.321Z,1015.43
2023-03-23T17:41:47.478Z,1015.46
2023-03-23T17:41:57.606Z,1015.54
2023-03-23T17:42:07.745Z,1015.57
2023-03-23T17:42:17.758Z,1015.57
2023-03-23T17:42:27.929Z,1015.63
2023-03-23T17:42:38.060Z,1015.66
2023-03-23T17:42:48.109Z,1015.72
2023-03-23T17:42:58.168Z,1015.75
2023-03-23T17:43:08.258Z,1015.77
2023-03-23T17:43:18.494Z,1015.79
2023-03-23T17:43:28.467Z,1015.85
2023-03-23T17:43:39.259Z,1015.91
2023-03-23T17:43:49.434Z,1015.95
2023-03-23T17:43:59.052Z,1015.98
2023-03-23T17:44:09.026Z,1016.09
2023-03-23T17:44:19.239Z,1016.12
2023-03-23T17:44:29.608Z,1016.07
2023-03-23T17:44:39.355Z,1016.15
2023-03-23T17:44:49.549Z,1016.22
2023-03-23T17:44:59.654Z,1016.29
2023-03-23T17:45:09.839Z,1016.32
2023-03-23T17:45:20.065Z,1016.36
2023-03-23T17:45:30.258Z,1016.40
2023-03-23T17:45:40.313Z,1016.38
2023-03-23T17:46:41.027Z,1016.33
2023-03-23T17:46:52.180Z,1016.34
2023-03-23T17:47:02.949Z,1016.37
2023-03-23T17:47:12.416Z,1016.37
2023-03-23T17:47:22.527Z,1016.41
2023-03-23T17:47:32.953Z,1016.35
2023-03-23T17:47:42.756Z,1016.38
2023-03-23T17:47:52.779Z,1016.42
2023-03-23T17:48:14.306Z,1016.42
2023-03-23T17:48:23.260Z,1016.46
2023-03-23T17:48:33.486Z,1016.46
2023-03-23T17:48:43.509Z,1016.40
2023-03-23T17:48:53.691Z,1016.45
2023-03-23T17:49:03.991Z,1016.42
2023-03-23T17:49:24.054Z,1016.42
2023-03-23T17:49:34.181Z,1016.46
2023-03-23T17:49:44.313Z,1016.44
2023-03-23T17:49:54.330Z,1016.42
2023-03-23T17:50:12.239Z,1016.42
2023-03-23T17:50:18.401Z,1016.43
2023-03-23T17:50:25.151Z,1016.42
2023-03-23T17:50:35.404Z,1016.43
2023-03-23T17:50:45.357Z,1016.43
2023-03-23T17:50:55.401Z,1016.41
2023-03-23T17:51:05.813Z,1016.42
2023-03-23T17:51:25.894Z,1016.44
2023-03-23T17:51:36.031Z,1016.41
2023-03-23T17:51:46.083Z,1016.45
2023-03-23T17:51:56.283Z,1016.40
2023-03-23T17:52:06.369Z,1016.40
2023-03-23T17:52:16.521Z,1016.43
2023-03-23T17:52:27.454Z,1016.45
2023-03-23T17:52:36.739Z,1016.43
2023-03-23T17:52:46.977Z,1016.41
2023-03-23T17:52:56.981Z,1016.45
2023-03-23T17:53:07.113Z,1016.44
2023-03-23T17:53:17.282Z,1016.42
2023-03-23T17:53:36.488Z,1016.44
2023-03-23T17:53:47.684Z,1016.42
2023-03-23T17:53:57.624Z,1016.45
2023-03-23T17:54:08.760Z,1016.50
2023-03-23T17:54:17.790Z,1016.50
2023-03-23T17:54:27.899Z,1016.59
2023-03-23T17:54:38.067Z,1016.64
2023-03-23T17:54:48.090Z,1016.64
2023-03-23T17:54:58.440Z,1016.62
2023-03-23T17:55:18.637Z,1016.65
2023-03-23T17:55:29.958Z,1016.64
2023-03-23T17:55:39.209Z,1016.67
2023-03-23T17:55:52.236Z,1016.67
2023-03-23T17:55:59.191Z,1016.61
2023-03-23T17:56:09.449Z,1016.62
2023-03-23T17:56:20.109Z,1016.60
2023-03-23T17:56:39.612Z,1016.66
2023-03-23T17:56:49.613Z,1016.65
2023-03-23T17:56:59.698Z,1016.65
2023-03-23T17:57:09.918Z,1016.66
2023-03-23T17:57:20.086Z,1016.72
2023-03-23T17:57:30.155Z,1016.67
2023-03-23T17:57:41.154Z,1016.69
2023-03-23T17:57:50.339Z,1016.71
2023-03-23T17:58:00.588Z,1016.65
2023-03-23T17:58:11.592Z,1016.64
2023-03-23T17:58:20.801Z,1016.64
2023-03-23T17:58:30.750Z,1016.67
2023-03-23T17:58:51.674Z,1016.72
2023-03-23T17:59:01.294Z,1016.70
2023-03-23T17:59:11.328Z,1016.69
2023-03-23T17:59:21.388Z,1016.65
2023-03-23T17:59:31.599Z,1016.71
2023-03-23T17:59:41.544Z,1016.70
2023-03-23T17:59:51.989Z,1016.72
2023-03-23T18:00:01.871Z,1016.70
2023-03-23T18:00:12.079Z,1016.72
2023-03-23T18:00:22.149Z,1016.70
2023-03-23T18:00:32.206Z,1016.72
2023-03-23T18:00:42.483Z,1016.77
2023-03-23T18:00:52.522Z,1016.76
2023-03-23T18:01:02.671Z,1016.81
2023-03-23T18:01:12.748Z,1016.79
2023-03-23T18:01:22.861Z,1016.82
2023-03-23T18:01:32.954Z,1016.79
2023-03-23T18:01:42.947Z,1016.81
2023-03-23T18:01:53.326Z,1016.82
2023-03-23T18:02:03.432Z,1016.82
2023-03-23T18:02:13.517Z,1016.77
2023-03-23T18:02:23.558Z,1016.78
2023-03-23T18:02:33.719Z,1016.76
2023-03-23T18:02:43.888Z,1016.69
2023-03-23T18:02:53.765Z,1016.72
2023-03-23T18:03:03.969Z,1016.71
2023-03-23T18:03:14.168Z,1016.72
2023-03-23T18:03:24.358Z,1016.68
2023-03-23T18:03:34.602Z,1016.67
2023-03-23T18:03:46.128Z,1016.65
2023-03-23T18:03:54.865Z,1016.65
2023-03-23T18:04:04.820Z,1016.60
2023-03-23T18:04:15.047Z,1016.56
2023-03-23T18:04:25.223Z,1016.54
2023-03-23T18:04:35.249Z,1016.55
2023-03-23T18:04:46.215Z,1016.54
2023-03-23T18:04:55.515Z,1016.46
2023-03-23T18:05:05.700Z,1016.45
2023-03-23T18:05:15.886Z,1016.42
2023-03-23T18:05:25.956Z,1016.39
2023-03-23T18:05:36.110Z,1016.43
2023-03-23T18:05:56.297Z,1016.35
2023-03-23T18:06:06.429Z,1016.34
2023-03-23T18:06:16.458Z,1016.32
2023-03-23T18:06:26.636Z,1016.29
2023-03-23T18:06:40.978Z,1016.29
2023-03-23T18:06:47.181Z,1016.29
2023-03-23T18:06:57.437Z,1016.36
2023-03-23T18:07:07.457Z,1016.33
2023-03-23T18:07:18.426Z,1016.34
2023-03-23T18:07:27.769Z,1016.33
2023-03-23T18:07:48.011Z,1016.33
2023-03-23T18:07:58.181Z,1016.33
2023-03-23T18:08:09.115Z,1016.32
2023-03-23T18:08:18.211Z,1016.30
2023-03-23T18:08:28.434Z,1016.32
2023-03-23T18:08:38.721Z,1016.34
2023-03-23T18:08:48.531Z,1016.36
2023-03-23T18:08:58.667Z,1016.35
2023-03-23T18:09:19.123Z,1016.35
2023-03-23T18:09:29.710Z,1016.38
2023-03-23T18:09:39.180Z,1016.38
2023-03-23T18:09:49.364Z,1016.39
2023-03-23T18:09:59.587Z,1016.41
2023-03-23T18:10:09.579Z,1016.38
2023-03-23T18:10:20.877Z,1016.40
2023-03-23T18:10:29.783Z,1016.38
2023-03-23T18:10:40.084Z,1016.38
2023-03-23T18:10:50.126Z,1016.38
2023-03-23T18:11:00.304Z,1016.38
2023-03-23T18:11:10.254Z,1016.39
2023-03-23T18:11:30.758Z,1016.41
2023-03-23T18:11:40.731Z,1016.40
2023-03-23T18:11:51.766Z,1016.40
2023-03-23T18:12:00.765Z,1016.35
2023-03-23T18:12:10.991Z,1016.41
2023-03-23T18:12:21.242Z,1016.40
2023-03-23T18:12:31.321Z,1016.38
2023-03-23T18:12:41.342Z,1016.40
2023-03-23T18:13:01.639Z,1016.43
2023-03-23T18:13:11.818Z,1016.45
2023-03-23T18:13:21.827Z,1016.44
2023-03-23T18:13:32.164Z,1016.41
2023-03-23T18:13:42.055Z,1016.42
2023-03-23T18:13:55.109Z,1016.39
2023-03-23T18:14:02.306Z,1016.43
2023-03-23T18:14:12.497Z,1016.40
2023-03-23T18:14:22.569Z,1016.40
2023-03-23T18:14:32.652Z,1016.35
2023-03-23T18:14:42.834Z,1016.39
2023-03-23T18:15:03.572Z,1016.33
2023-03-23T18:15:13.228Z,1016.33
2023-03-23T18:15:28.877Z,1016.34
2023-03-23T18:15:34.990Z,1016.30
2023-03-23T18:15:45.976Z,1016.33
2023-03-23T18:15:54.069Z,1016.28
2023-03-23T18:16:04.332Z,1016.24
2023-03-23T18:16:14.273Z,1016.17
2023-03-23T18:16:24.357Z,1016.12
2023-03-23T18:16:44.806Z,1016.01
2023-03-23T18:16:54.865Z,1016.00
2023-03-23T18:17:05.179Z,1015.97
2023-03-23T18:17:15.290Z,1015.97
2023-03-23T18:17:25.339Z,1015.91
2023-03-23T18:17:35.530Z,1015.88
2023-03-23T18:17:48.879Z,1015.88
2023-03-23T18:17:55.535Z,1015.90
2023-03-23T18:18:05.727Z,1015.85
2023-03-23T18:18:15.903Z,1015.82
2023-03-23T18:18:26.013Z,1015.89
2023-03-23T18:18:36.078Z,1015.85
2023-03-23T18:18:56.277Z,1015.85
2023-03-23T18:19:06.521Z,1015.73
2023-03-23T18:19:17.283Z,1015.69
2023-03-23T18:19:26.808Z,1015.60
2023-03-23T18:19:36.949Z,1015.59
2023-03-23T18:19:46.979Z,1015.53
2023-03-23T18:19:57.205Z,1015.52
2023-03-23T18:20:07.303Z,1015.41
2023-03-23T18:20:17.409Z,1015.35
2023-03-23T18:20:27.652Z,1015.32
2023-03-23T18:20:37.681Z,1015.27
2023-03-23T18:20:47.759Z,1015.23
2023-03-23T18:20:57.817Z,1015.17
2023-03-23T18:21:08.017Z,1015.17
2023-03-23T18:21:18.071Z,1015.11
2023-03-23T18:21:28.426Z,1014.99
2023-03-23T18:21:38.474Z,1014.99
2023-03-23T18:21:48.420Z,1014.87
2023-03-23T18:21:58.539Z,1014.81
2023-03-23T18:22:08.762Z,1014.74
2023-03-23T18:22:18.839Z,1014.61
2023-03-23T18:22:29.005Z,1014.49
2023-03-23T18:22:39.072Z,1014.39
2023-03-23T18:22:49.282Z,1014.37
2023-03-23T18:22:59.286Z,1014.35
2023-03-23T18:23:09.486Z,1014.35
2023-03-23T18:23:19.666Z,1014.32
2023-03-23T18:23:29.724Z,1014.30
2023-03-23T18:23:49.294Z,1014.18
2023-03-23T18:23:59.785Z,1014.06
2023-03-23T18:24:06.139Z,1013.83
2023-03-23T18:24:16.262Z,1013.78
2023-03-23T18:24:26.485Z,1013.64
2023-03-23T18:24:36.599Z,1013.46
2023-03-23T18:24:46.685Z,1013.32
2023-03-23T18:25:06.836Z,1013.22
2023-03-23T18:25:17.135Z,1013.22
2023-03-23T18:25:27.174Z,1013.08
2023-03-23T18:25:37.158Z,1013.12
2023-03-23T18:25:47.519Z,1013.12
2023-03-23T18:25:57.846Z,1013.13
2023-03-23T18:26:07.860Z,1013.10
2023-03-23T18:26:17.775Z,1013.14
2023-03-23T18:26:28.249Z,1013.13
2023-03-23T18:26:39.157Z,1013.09
2023-03-23T18:26:48.391Z,1013.09
2023-03-23T18:26:58.388Z,1013.10
2023-03-23T18:27:08.776Z,1012.99
2023-03-23T18:27:18.809Z,1012.98
